sensor_id;sensor_type;location;lat;lon;timestamp;P1;durP1;ratioP1;P2;durP2;ratioP2
61897;SDS011;47850;50.274;18.908;2022-09-17T00:01:00;16.00;;;8.50;;
61897;SDS011;47850;50.274;18.908;2022-09-17T00:03:27;17.40;;;7.80;;
61897;SDS011;47850;50.274;18.908;2022-09-17T00:06:00;12.50;;;8.40;;
61897;SDS011;47850;50.274;18.908;2022-09-17T00:08:26;14.40;;;8.30;;
61897;SDS011;47850;50.274;18.908;2022-09-17T00:10:52;12.50;;;7.90;;
61897;SDS011;47850;50.274;18.908;2022-09-17T00:13:18;11.60;;;7.50;;
61897;SDS011;47850;50.274;18.908;2022-09-17T00:15:44;15.70;;;8.50;;
61897;SDS011;47850;50.274;18.908;2022-09-17T00:18:12;16.40;;;8.80;;
61897;SDS011;47850;50.274;18.908;2022-09-17T00:20:39;13.50;;;8.20;;
61897;SDS011;47850;50.274;18.908;2022-09-17T00:23:06;10.80;;;7.60;;
61897;SDS011;47850;50.274;18.908;2022-09-17T00:25:36;12.40;;;8.10;;
61897;SDS011;47850;50.274;18.908;2022-09-17T00:28:03;16.70;;;10.10;;
61897;SDS011;47850;50.274;18.908;2022-09-17T00:30:29;14.00;;;8.90;;
61897;SDS011;47850;50.274;18.908;2022-09-17T00:32:55;14.10;;;8.00;;
61897;SDS011;47850;50.274;18.908;2022-09-17T00:35:23;11.60;;;8.00;;
61897;SDS011;47850;50.274;18.908;2022-09-17T00:37:49;11.80;;;7.00;;
61897;SDS011;47850;50.274;18.908;2022-09-17T00:40:16;13.60;;;7.60;;
61897;SDS011;47850;50.274;18.908;2022-09-17T00:42:42;12.50;;;8.10;;
61897;SDS011;47850;50.274;18.908;2022-09-17T00:45:09;13.20;;;8.00;;
61897;SDS011;47850;50.274;18.908;2022-09-17T00:47:44;11.50;;;6.90;;
61897;SDS011;47850;50.274;18.908;2022-09-17T00:50:17;11.70;;;6.90;;
61897;SDS011;47850;50.274;18.908;2022-09-17T00:52:53;14.20;;;7.80;;
61897;SDS011;47850;50.274;18.908;2022-09-17T00:55:23;12.50;;;7.80;;
61897;SDS011;47850;50.274;18.908;2022-09-17T00:57:58;11.40;;;6.60;;
61897;SDS011;47850;50.274;18.908;2022-09-17T01:00:27;9.50;;;5.50;;
61897;SDS011;47850;50.274;18.908;2022-09-17T01:02:55;11.30;;;6.80;;
61897;SDS011;47850;50.274;18.908;2022-09-17T01:05:24;9.30;;;5.70;;
61897;SDS011;47850;50.274;18.908;2022-09-17T01:13:27;9.50;;;5.60;;
61897;SDS011;47850;50.274;18.908;2022-09-17T01:21:57;11.60;;;7.30;;
61897;SDS011;47850;50.274;18.908;2022-09-17T01:33:38;10.70;;;5.70;;
61897;SDS011;47850;50.274;18.908;2022-09-17T01:38:31;9.20;;;5.70;;
61897;SDS011;47850;50.274;18.908;2022-09-17T01:41:05;9.10;;;5.90;;
61897;SDS011;47850;50.274;18.908;2022-09-17T01:46:36;10.80;;;5.40;;
61897;SDS011;47850;50.274;18.908;2022-09-17T01:49:16;9.50;;;5.50;;
61897;SDS011;47850;50.274;18.908;2022-09-17T01:51:45;9.40;;;6.80;;
61897;SDS011;47850;50.274;18.908;2022-09-17T01:54:57;12.60;;;6.40;;
61897;SDS011;47850;50.274;18.908;2022-09-17T01:57:15;10.80;;;6.70;;
61897;SDS011;47850;50.274;18.908;2022-09-17T01:59:56;8.90;;;5.60;;
61897;SDS011;47850;50.274;18.908;2022-09-17T02:02:31;9.10;;;6.20;;
61897;SDS011;47850;50.274;18.908;2022-09-17T02:05:10;14.80;;;6.40;;
61897;SDS011;47850;50.274;18.908;2022-09-17T02:08:25;11.70;;;6.30;;
61897;SDS011;47850;50.274;18.908;2022-09-17T02:10:39;11.70;;;6.40;;
61897;SDS011;47850;50.274;18.908;2022-09-17T02:13:21;10.00;;;5.70;;
61897;SDS011;47850;50.274;18.908;2022-09-17T02:15:53;9.10;;;5.70;;
61897;SDS011;47850;50.274;18.908;2022-09-17T02:18:27;8.20;;;4.90;;
61897;SDS011;47850;50.274;18.908;2022-09-17T02:20:56;9.00;;;5.50;;
61897;SDS011;47850;50.274;18.908;2022-09-17T02:23:34;5.80;;;4.50;;
61897;SDS011;47850;50.274;18.908;2022-09-17T02:26:05;8.20;;;5.30;;
61897;SDS011;47850;50.274;18.908;2022-09-17T02:28:44;8.20;;;5.00;;
61897;SDS011;47850;50.274;18.908;2022-09-17T02:31:14;5.40;;;4.20;;
61897;SDS011;47850;50.274;18.908;2022-09-17T02:33:41;8.10;;;4.90;;
61897;SDS011;47850;50.274;18.908;2022-09-17T02:36:11;10.70;;;4.80;;
61897;SDS011;47850;50.274;18.908;2022-09-17T02:38:37;7.90;;;5.30;;
61897;SDS011;47850;50.274;18.908;2022-09-17T02:41:14;9.90;;;5.50;;
61897;SDS011;47850;50.274;18.908;2022-09-17T02:43:44;10.00;;;5.60;;
61897;SDS011;47850;50.274;18.908;2022-09-17T02:59:53;8.90;;;6.10;;
61897;SDS011;47850;50.274;18.908;2022-09-17T03:05:08;7.70;;;5.70;;
61897;SDS011;47850;50.274;18.908;2022-09-17T03:07:35;9.10;;;5.40;;
61897;SDS011;47850;50.274;18.908;2022-09-17T03:10:02;8.50;;;5.60;;
61897;SDS011;47850;50.274;18.908;2022-09-17T03:12:28;8.10;;;6.10;;
61897;SDS011;47850;50.274;18.908;2022-09-17T03:14:54;8.00;;;5.80;;
61897;SDS011;47850;50.274;18.908;2022-09-17T03:17:20;10.20;;;5.80;;
61897;SDS011;47850;50.274;18.908;2022-09-17T03:19:46;7.50;;;5.60;;
61897;SDS011;47850;50.274;18.908;2022-09-17T03:22:11;15.30;;;5.80;;
61897;SDS011;47850;50.274;18.908;2022-09-17T03:24:38;8.60;;;6.30;;
61897;SDS011;47850;50.274;18.908;2022-09-17T03:27:04;10.50;;;6.10;;
61897;SDS011;47850;50.274;18.908;2022-09-17T03:29:30;8.20;;;5.60;;
61897;SDS011;47850;50.274;18.908;2022-09-17T03:31:55;12.20;;;6.70;;
61897;SDS011;47850;50.274;18.908;2022-09-17T03:34:21;9.00;;;6.80;;
61897;SDS011;47850;50.274;18.908;2022-09-17T03:36:48;10.00;;;6.10;;
61897;SDS011;47850;50.274;18.908;2022-09-17T03:39:14;12.80;;;6.90;;
61897;SDS011;47850;50.274;18.908;2022-09-17T03:41:39;10.60;;;6.90;;
61897;SDS011;47850;50.274;18.908;2022-09-17T03:44:05;11.10;;;7.10;;
61897;SDS011;47850;50.274;18.908;2022-09-17T03:46:31;10.90;;;6.50;;
61897;SDS011;47850;50.274;18.908;2022-09-17T03:48:57;10.50;;;6.80;;
61897;SDS011;47850;50.274;18.908;2022-09-17T03:51:23;12.70;;;6.90;;
61897;SDS011;47850;50.274;18.908;2022-09-17T03:53:49;10.30;;;7.00;;
61897;SDS011;47850;50.274;18.908;2022-09-17T03:56:14;9.60;;;6.60;;
61897;SDS011;47850;50.274;18.908;2022-09-17T03:58:42;9.00;;;6.20;;
61897;SDS011;47850;50.274;18.908;2022-09-17T04:01:07;11.60;;;7.10;;
61897;SDS011;47850;50.274;18.908;2022-09-17T04:03:33;9.90;;;6.50;;
61897;SDS011;47850;50.274;18.908;2022-09-17T04:05:59;12.40;;;7.20;;
61897;SDS011;47850;50.274;18.908;2022-09-17T04:08:25;13.60;;;7.20;;
61897;SDS011;47850;50.274;18.908;2022-09-17T04:10:50;10.60;;;6.70;;
61897;SDS011;47850;50.274;18.908;2022-09-17T04:13:16;9.90;;;6.70;;
61897;SDS011;47850;50.274;18.908;2022-09-17T04:15:43;10.10;;;7.30;;
61897;SDS011;47850;50.274;18.908;2022-09-17T04:18:10;10.50;;;6.70;;
61897;SDS011;47850;50.274;18.908;2022-09-17T04:20:36;11.80;;;7.10;;
61897;SDS011;47850;50.274;18.908;2022-09-17T04:23:02;10.20;;;6.20;;
61897;SDS011;47850;50.274;18.908;2022-09-17T04:25:28;10.00;;;6.60;;
61897;SDS011;47850;50.274;18.908;2022-09-17T04:27:54;11.90;;;8.10;;
61897;SDS011;47850;50.274;18.908;2022-09-17T04:30:20;12.60;;;7.70;;
61897;SDS011;47850;50.274;18.908;2022-09-17T04:32:46;9.30;;;7.50;;
61897;SDS011;47850;50.274;18.908;2022-09-17T04:35:12;13.20;;;8.10;;
61897;SDS011;47850;50.274;18.908;2022-09-17T04:37:38;12.30;;;7.70;;
61897;SDS011;47850;50.274;18.908;2022-09-17T04:40:04;11.00;;;7.10;;
61897;SDS011;47850;50.274;18.908;2022-09-17T04:42:31;11.50;;;7.40;;
61897;SDS011;47850;50.274;18.908;2022-09-17T04:44:56;11.60;;;7.80;;
61897;SDS011;47850;50.274;18.908;2022-09-17T04:47:23;9.90;;;7.40;;
61897;SDS011;47850;50.274;18.908;2022-09-17T04:49:49;12.20;;;7.90;;
61897;SDS011;47850;50.274;18.908;2022-09-17T04:52:15;11.00;;;7.80;;
61897;SDS011;47850;50.274;18.908;2022-09-17T04:54:40;13.40;;;8.30;;
61897;SDS011;47850;50.274;18.908;2022-09-17T04:57:06;12.20;;;8.00;;
61897;SDS011;47850;50.274;18.908;2022-09-17T04:59:32;9.00;;;5.90;;
61897;SDS011;47850;50.274;18.908;2022-09-17T05:01:58;13.40;;;8.00;;
61897;SDS011;47850;50.274;18.908;2022-09-17T05:04:24;12.50;;;8.70;;
61897;SDS011;47850;50.274;18.908;2022-09-17T05:06:50;12.20;;;8.80;;
61897;SDS011;47850;50.274;18.908;2022-09-17T05:09:15;10.10;;;7.30;;
61897;SDS011;47850;50.274;18.908;2022-09-17T05:11:42;13.90;;;8.50;;
61897;SDS011;47850;50.274;18.908;2022-09-17T05:14:07;11.70;;;8.00;;
61897;SDS011;47850;50.274;18.908;2022-09-17T05:16:33;13.60;;;8.70;;
61897;SDS011;47850;50.274;18.908;2022-09-17T05:18:59;11.40;;;8.30;;
61897;SDS011;47850;50.274;18.908;2022-09-17T05:21:25;10.10;;;6.30;;
61897;SDS011;47850;50.274;18.908;2022-09-17T05:23:51;10.40;;;7.10;;
61897;SDS011;47850;50.274;18.908;2022-09-17T05:26:17;10.50;;;7.70;;
61897;SDS011;47850;50.274;18.908;2022-09-17T05:28:43;12.40;;;7.00;;
61897;SDS011;47850;50.274;18.908;2022-09-17T05:31:08;11.50;;;7.00;;
61897;SDS011;47850;50.274;18.908;2022-09-17T05:33:34;9.70;;;6.50;;
61897;SDS011;47850;50.274;18.908;2022-09-17T05:36:00;11.40;;;7.50;;
61897;SDS011;47850;50.274;18.908;2022-09-17T05:38:26;9.20;;;6.70;;
61897;SDS011;47850;50.274;18.908;2022-09-17T05:40:52;10.70;;;7.10;;
61897;SDS011;47850;50.274;18.908;2022-09-17T05:43:18;7.70;;;6.10;;
61897;SDS011;47850;50.274;18.908;2022-09-17T05:45:43;9.30;;;6.60;;
61897;SDS011;47850;50.274;18.908;2022-09-17T05:48:13;10.40;;;6.50;;
61897;SDS011;47850;50.274;18.908;2022-09-17T05:50:40;9.80;;;6.60;;
61897;SDS011;47850;50.274;18.908;2022-09-17T05:53:06;8.90;;;5.50;;
61897;SDS011;47850;50.274;18.908;2022-09-17T05:55:35;9.00;;;6.20;;
61897;SDS011;47850;50.274;18.908;2022-09-17T05:58:08;6.50;;;4.70;;
61897;SDS011;47850;50.274;18.908;2022-09-17T06:00:36;8.70;;;6.00;;
61897;SDS011;47850;50.274;18.908;2022-09-17T06:03:01;8.70;;;5.60;;
61897;SDS011;47850;50.274;18.908;2022-09-17T06:05:27;7.20;;;5.20;;
61897;SDS011;47850;50.274;18.908;2022-09-17T06:07:53;9.50;;;6.20;;
61897;SDS011;47850;50.274;18.908;2022-09-17T06:10:19;9.30;;;6.10;;
61897;SDS011;47850;50.274;18.908;2022-09-17T06:12:44;6.50;;;5.00;;
61897;SDS011;47850;50.274;18.908;2022-09-17T06:15:10;8.70;;;5.40;;
61897;SDS011;47850;50.274;18.908;2022-09-17T06:17:39;8.50;;;5.70;;
61897;SDS011;47850;50.274;18.908;2022-09-17T06:20:05;13.30;;;4.80;;
61897;SDS011;47850;50.274;18.908;2022-09-17T06:22:31;6.60;;;4.90;;
61897;SDS011;47850;50.274;18.908;2022-09-17T06:24:57;7.10;;;5.50;;
61897;SDS011;47850;50.274;18.908;2022-09-17T06:27:32;7.10;;;5.30;;
61897;SDS011;47850;50.274;18.908;2022-09-17T06:29:58;6.70;;;4.90;;
61897;SDS011;47850;50.274;18.908;2022-09-17T06:32:25;8.80;;;5.20;;
61897;SDS011;47850;50.274;18.908;2022-09-17T06:34:51;7.20;;;5.40;;
61897;SDS011;47850;50.274;18.908;2022-09-17T06:37:18;8.80;;;5.20;;
61897;SDS011;47850;50.274;18.908;2022-09-17T06:39:44;9.10;;;5.10;;
61897;SDS011;47850;50.274;18.908;2022-09-17T06:42:10;7.40;;;5.10;;
61897;SDS011;47850;50.274;18.908;2022-09-17T06:44:36;6.30;;;4.40;;
61897;SDS011;47850;50.274;18.908;2022-09-17T06:47:02;8.40;;;5.50;;
61897;SDS011;47850;50.274;18.908;2022-09-17T06:49:28;10.50;;;6.80;;
61897;SDS011;47850;50.274;18.908;2022-09-17T06:51:55;13.60;;;7.70;;
61897;SDS011;47850;50.274;18.908;2022-09-17T06:54:21;8.20;;;5.90;;
61897;SDS011;47850;50.274;18.908;2022-09-17T06:56:47;8.20;;;4.60;;
61897;SDS011;47850;50.274;18.908;2022-09-17T06:59:13;6.60;;;5.00;;
61897;SDS011;47850;50.274;18.908;2022-09-17T07:01:38;7.40;;;4.50;;
61897;SDS011;47850;50.274;18.908;2022-09-17T07:04:04;8.60;;;5.70;;
61897;SDS011;47850;50.274;18.908;2022-09-17T07:06:30;8.60;;;5.60;;
61897;SDS011;47850;50.274;18.908;2022-09-17T07:08:57;10.00;;;6.30;;
61897;SDS011;47850;50.274;18.908;2022-09-17T07:11:23;10.60;;;6.00;;
61897;SDS011;47850;50.274;18.908;2022-09-17T07:13:49;8.30;;;4.90;;
61897;SDS011;47850;50.274;18.908;2022-09-17T07:16:14;8.20;;;5.60;;
61897;SDS011;47850;50.274;18.908;2022-09-17T07:18:40;8.70;;;5.30;;
61897;SDS011;47850;50.274;18.908;2022-09-17T07:21:08;10.10;;;6.30;;
61897;SDS011;47850;50.274;18.908;2022-09-17T07:23:35;7.00;;;4.90;;
61897;SDS011;47850;50.274;18.908;2022-09-17T07:26:11;8.50;;;5.30;;
61897;SDS011;47850;50.274;18.908;2022-09-17T07:28:38;6.20;;;4.70;;
61897;SDS011;47850;50.274;18.908;2022-09-17T07:31:05;8.60;;;5.50;;
61897;SDS011;47850;50.274;18.908;2022-09-17T07:33:32;8.70;;;5.20;;
61897;SDS011;47850;50.274;18.908;2022-09-17T07:36:00;8.80;;;5.50;;
61897;SDS011;47850;50.274;18.908;2022-09-17T07:38:32;7.20;;;4.30;;
61897;SDS011;47850;50.274;18.908;2022-09-17T07:41:19;7.60;;;4.30;;
61897;SDS011;47850;50.274;18.908;2022-09-17T07:43:44;9.70;;;4.60;;
61897;SDS011;47850;50.274;18.908;2022-09-17T07:46:14;6.80;;;3.90;;
61897;SDS011;47850;50.274;18.908;2022-09-17T07:48:43;6.30;;;4.30;;
61897;SDS011;47850;50.274;18.908;2022-09-17T07:51:17;9.40;;;4.00;;
61897;SDS011;47850;50.274;18.908;2022-09-17T07:53:55;7.30;;;4.30;;
61897;SDS011;47850;50.274;18.908;2022-09-17T07:56:23;6.70;;;3.80;;
61897;SDS011;47850;50.274;18.908;2022-09-17T07:58:50;5.80;;;4.70;;
61897;SDS011;47850;50.274;18.908;2022-09-17T08:01:17;6.20;;;3.60;;
61897;SDS011;47850;50.274;18.908;2022-09-17T08:03:51;5.00;;;2.90;;
61897;SDS011;47850;50.274;18.908;2022-09-17T08:06:20;5.40;;;3.20;;
61897;SDS011;47850;50.274;18.908;2022-09-17T08:08:48;3.70;;;2.20;;
61897;SDS011;47850;50.274;18.908;2022-09-17T08:11:14;2.80;;;2.20;;
61897;SDS011;47850;50.274;18.908;2022-09-17T08:13:45;3.80;;;2.20;;
61897;SDS011;47850;50.274;18.908;2022-09-17T08:16:12;3.80;;;2.30;;
61897;SDS011;47850;50.274;18.908;2022-09-17T08:18:38;4.30;;;2.10;;
61897;SDS011;47850;50.274;18.908;2022-09-17T08:21:05;6.40;;;1.70;;
61897;SDS011;47850;50.274;18.908;2022-09-17T08:23:36;3.40;;;2.30;;
61897;SDS011;47850;50.274;18.908;2022-09-17T08:26:03;3.90;;;2.30;;
61897;SDS011;47850;50.274;18.908;2022-09-17T08:31:00;2.60;;;1.90;;
61897;SDS011;47850;50.274;18.908;2022-09-17T08:33:34;4.90;;;2.00;;
61897;SDS011;47850;50.274;18.908;2022-09-17T08:36:01;2.70;;;1.80;;
61897;SDS011;47850;50.274;18.908;2022-09-17T08:38:29;3.80;;;2.00;;
61897;SDS011;47850;50.274;18.908;2022-09-17T08:43:29;3.30;;;1.70;;
61897;SDS011;47850;50.274;18.908;2022-09-17T08:46:01;3.90;;;2.00;;
61897;SDS011;47850;50.274;18.908;2022-09-17T08:48:29;2.80;;;1.60;;
61897;SDS011;47850;50.274;18.908;2022-09-17T08:51:05;2.40;;;1.50;;
61897;SDS011;47850;50.274;18.908;2022-09-17T08:54:12;3.80;;;1.90;;
61897;SDS011;47850;50.274;18.908;2022-09-17T08:56:50;2.60;;;1.80;;
61897;SDS011;47850;50.274;18.908;2022-09-17T08:59:38;3.10;;;1.90;;
61897;SDS011;47850;50.274;18.908;2022-09-17T09:05:10;5.10;;;2.00;;
61897;SDS011;47850;50.274;18.908;2022-09-17T09:07:42;3.20;;;2.10;;
61897;SDS011;47850;50.274;18.908;2022-09-17T09:10:16;4.60;;;2.00;;
61897;SDS011;47850;50.274;18.908;2022-09-17T09:12:53;2.80;;;2.10;;
61897;SDS011;47850;50.274;18.908;2022-09-17T09:18:12;3.60;;;2.00;;
61897;SDS011;47850;50.274;18.908;2022-09-17T09:20:50;3.20;;;1.90;;
61897;SDS011;47850;50.274;18.908;2022-09-17T09:23:19;3.80;;;2.00;;
61897;SDS011;47850;50.274;18.908;2022-09-17T09:33:56;2.70;;;1.40;;
61897;SDS011;47850;50.274;18.908;2022-09-17T09:36:24;3.30;;;2.20;;
61897;SDS011;47850;50.274;18.908;2022-09-17T09:38:58;4.60;;;2.10;;
61897;SDS011;47850;50.274;18.908;2022-09-17T09:41:47;7.60;;;2.10;;
61897;SDS011;47850;50.274;18.908;2022-09-17T09:44:18;5.20;;;2.50;;
61897;SDS011;47850;50.274;18.908;2022-09-17T09:52:22;3.80;;;2.60;;
61897;SDS011;47850;50.274;18.908;2022-09-17T09:55:15;4.60;;;1.70;;
61897;SDS011;47850;50.274;18.908;2022-09-17T10:00:49;5.10;;;2.90;;
61897;SDS011;47850;50.274;18.908;2022-09-17T10:03:22;7.30;;;3.50;;
61897;SDS011;47850;50.274;18.908;2022-09-17T10:05:56;7.50;;;3.70;;
61897;SDS011;47850;50.274;18.908;2022-09-17T10:08:26;5.70;;;3.40;;
61897;SDS011;47850;50.274;18.908;2022-09-17T10:13:21;4.70;;;3.00;;
61897;SDS011;47850;50.274;18.908;2022-09-17T10:15:47;5.60;;;3.40;;
61897;SDS011;47850;50.274;18.908;2022-09-17T10:20:50;5.30;;;3.40;;
61897;SDS011;47850;50.274;18.908;2022-09-17T10:23:21;4.90;;;2.50;;
61897;SDS011;47850;50.274;18.908;2022-09-17T10:25:49;3.50;;;2.60;;
61897;SDS011;47850;50.274;18.908;2022-09-17T10:28:23;5.30;;;3.90;;
61897;SDS011;47850;50.274;18.908;2022-09-17T10:31:02;3.90;;;2.70;;
61897;SDS011;47850;50.274;18.908;2022-09-17T10:33:32;4.00;;;2.80;;
61897;SDS011;47850;50.274;18.908;2022-09-17T10:36:10;3.80;;;2.70;;
61897;SDS011;47850;50.274;18.908;2022-09-17T10:38:39;4.40;;;2.90;;
61897;SDS011;47850;50.274;18.908;2022-09-17T10:41:10;4.30;;;2.80;;
61897;SDS011;47850;50.274;18.908;2022-09-17T10:43:46;5.10;;;2.50;;
61897;SDS011;47850;50.274;18.908;2022-09-17T10:46:34;4.80;;;2.50;;
61897;SDS011;47850;50.274;18.908;2022-09-17T10:52:10;3.30;;;2.50;;
61897;SDS011;47850;50.274;18.908;2022-09-17T10:57:50;4.90;;;3.20;;
61897;SDS011;47850;50.274;18.908;2022-09-17T11:00:20;6.10;;;3.20;;
61897;SDS011;47850;50.274;18.908;2022-09-17T11:05:47;4.40;;;2.20;;
61897;SDS011;47850;50.274;18.908;2022-09-17T11:11:08;23.50;;;14.10;;
61897;SDS011;47850;50.274;18.908;2022-09-17T11:13:38;10.10;;;6.20;;
61897;SDS011;47850;50.274;18.908;2022-09-17T11:22:22;6.30;;;4.20;;
61897;SDS011;47850;50.274;18.908;2022-09-17T11:30:57;4.70;;;2.70;;
61897;SDS011;47850;50.274;18.908;2022-09-17T11:36:09;7.30;;;3.50;;
61897;SDS011;47850;50.274;18.908;2022-09-17T11:38:47;6.30;;;3.70;;
61897;SDS011;47850;50.274;18.908;2022-09-17T11:41:21;7.30;;;3.90;;
61897;SDS011;47850;50.274;18.908;2022-09-17T11:52:32;6.60;;;3.80;;
61897;SDS011;47850;50.274;18.908;2022-09-17T11:55:10;7.40;;;3.70;;
61897;SDS011;47850;50.274;18.908;2022-09-17T11:57:46;5.70;;;3.30;;
61897;SDS011;47850;50.274;18.908;2022-09-17T12:00:17;9.70;;;3.90;;
61897;SDS011;47850;50.274;18.908;2022-09-17T12:10:47;6.20;;;3.60;;
61897;SDS011;47850;50.274;18.908;2022-09-17T12:13:32;6.40;;;3.30;;
61897;SDS011;47850;50.274;18.908;2022-09-17T12:16:20;5.00;;;3.30;;
61897;SDS011;47850;50.274;18.908;2022-09-17T12:21:29;7.80;;;3.30;;
61897;SDS011;47850;50.274;18.908;2022-09-17T12:27:17;5.60;;;2.80;;
61897;SDS011;47850;50.274;18.908;2022-09-17T12:30:11;9.10;;;3.10;;
61897;SDS011;47850;50.274;18.908;2022-09-17T12:38:29;4.10;;;2.50;;
61897;SDS011;47850;50.274;18.908;2022-09-17T12:41:13;5.20;;;2.70;;
61897;SDS011;47850;50.274;18.908;2022-09-17T12:43:55;3.80;;;2.50;;
61897;SDS011;47850;50.274;18.908;2022-09-17T12:52:39;4.10;;;2.20;;
61897;SDS011;47850;50.274;18.908;2022-09-17T12:58:16;5.00;;;2.50;;
61897;SDS011;47850;50.274;18.908;2022-09-17T13:01:12;4.00;;;2.40;;
61897;SDS011;47850;50.274;18.908;2022-09-17T13:03:54;6.90;;;2.80;;
61897;SDS011;47850;50.274;18.908;2022-09-17T13:12:29;6.50;;;3.70;;
61897;SDS011;47850;50.274;18.908;2022-09-17T13:17:59;3.80;;;2.50;;
61897;SDS011;47850;50.274;18.908;2022-09-17T13:20:32;5.60;;;2.90;;
61897;SDS011;47850;50.274;18.908;2022-09-17T13:23:03;4.60;;;2.30;;
61897;SDS011;47850;50.274;18.908;2022-09-17T13:25:30;5.10;;;2.90;;
61897;SDS011;47850;50.274;18.908;2022-09-17T13:28:03;5.30;;;3.30;;
61897;SDS011;47850;50.274;18.908;2022-09-17T13:36:33;4.30;;;2.40;;
61897;SDS011;47850;50.274;18.908;2022-09-17T13:39:00;4.40;;;2.20;;
61897;SDS011;47850;50.274;18.908;2022-09-17T13:41:27;4.10;;;2.80;;
61897;SDS011;47850;50.274;18.908;2022-09-17T13:43:56;3.10;;;2.20;;
61897;SDS011;47850;50.274;18.908;2022-09-17T13:46:23;3.30;;;2.00;;
61897;SDS011;47850;50.274;18.908;2022-09-17T13:48:51;4.20;;;2.40;;
61897;SDS011;47850;50.274;18.908;2022-09-17T13:54:03;4.90;;;2.50;;
61897;SDS011;47850;50.274;18.908;2022-09-17T13:56:44;7.90;;;3.60;;
61897;SDS011;47850;50.274;18.908;2022-09-17T13:59:17;4.50;;;3.10;;
61897;SDS011;47850;50.274;18.908;2022-09-17T14:01:59;4.00;;;2.80;;
61897;SDS011;47850;50.274;18.908;2022-09-17T14:04:32;6.90;;;3.70;;
61897;SDS011;47850;50.274;18.908;2022-09-17T14:23:43;4.20;;;2.90;;
61897;SDS011;47850;50.274;18.908;2022-09-17T14:26:27;6.10;;;3.20;;
61897;SDS011;47850;50.274;18.908;2022-09-17T14:32:07;7.70;;;3.80;;
61897;SDS011;47850;50.274;18.908;2022-09-17T14:34:40;5.70;;;3.90;;
61897;SDS011;47850;50.274;18.908;2022-09-17T14:37:08;5.50;;;3.50;;
61897;SDS011;47850;50.274;18.908;2022-09-17T14:39:39;6.30;;;3.40;;
61897;SDS011;47850;50.274;18.908;2022-09-17T14:42:08;7.70;;;3.80;;
61897;SDS011;47850;50.274;18.908;2022-09-17T14:44:53;6.80;;;4.30;;
61897;SDS011;47850;50.274;18.908;2022-09-17T14:47:23;6.50;;;4.30;;
61897;SDS011;47850;50.274;18.908;2022-09-17T14:49:51;8.70;;;5.30;;
61897;SDS011;47850;50.274;18.908;2022-09-17T14:52:22;7.20;;;5.30;;
61897;SDS011;47850;50.274;18.908;2022-09-17T14:57:35;6.80;;;5.00;;
61897;SDS011;47850;50.274;18.908;2022-09-17T15:00:02;6.50;;;4.80;;
61897;SDS011;47850;50.274;18.908;2022-09-17T15:02:40;8.00;;;5.80;;
61897;SDS011;47850;50.274;18.908;2022-09-17T15:07:43;8.70;;;5.20;;
61897;SDS011;47850;50.274;18.908;2022-09-17T15:10:27;38.40;;;22.80;;
61897;SDS011;47850;50.274;18.908;2022-09-17T15:12:53;8.90;;;5.20;;
61897;SDS011;47850;50.274;18.908;2022-09-17T15:15:20;8.00;;;5.00;;
61897;SDS011;47850;50.274;18.908;2022-09-17T15:17:49;12.40;;;7.00;;
61897;SDS011;47850;50.274;18.908;2022-09-17T15:20:22;12.00;;;6.80;;
61897;SDS011;47850;50.274;18.908;2022-09-17T15:25:42;11.90;;;4.00;;
61897;SDS011;47850;50.274;18.908;2022-09-17T15:28:33;7.00;;;4.30;;
61897;SDS011;47850;50.274;18.908;2022-09-17T15:31:05;7.10;;;4.00;;
61897;SDS011;47850;50.274;18.908;2022-09-17T15:33:38;9.50;;;4.50;;
61897;SDS011;47850;50.274;18.908;2022-09-17T15:36:16;6.90;;;3.70;;
61897;SDS011;47850;50.274;18.908;2022-09-17T15:38:51;9.80;;;4.20;;
61897;SDS011;47850;50.274;18.908;2022-09-17T15:41:32;9.40;;;4.80;;
61897;SDS011;47850;50.274;18.908;2022-09-17T15:46:51;7.40;;;4.20;;
61897;SDS011;47850;50.274;18.908;2022-09-17T15:55:00;11.60;;;4.90;;
61897;SDS011;47850;50.274;18.908;2022-09-17T15:57:27;7.30;;;5.30;;
61897;SDS011;47850;50.274;18.908;2022-09-17T15:59:55;8.40;;;6.40;;
61897;SDS011;47850;50.274;18.908;2022-09-17T16:02:30;21.10;;;13.80;;
61897;SDS011;47850;50.274;18.908;2022-09-17T16:07:38;17.80;;;10.60;;
61897;SDS011;47850;50.274;18.908;2022-09-17T16:10:05;14.50;;;9.20;;
61897;SDS011;47850;50.274;18.908;2022-09-17T16:12:33;15.60;;;10.10;;
61897;SDS011;47850;50.274;18.908;2022-09-17T16:14:59;17.10;;;9.80;;
61897;SDS011;47850;50.274;18.908;2022-09-17T16:17:27;16.10;;;10.20;;
61897;SDS011;47850;50.274;18.908;2022-09-17T16:19:54;17.30;;;10.10;;
61897;SDS011;47850;50.274;18.908;2022-09-17T16:22:20;16.90;;;9.50;;
61897;SDS011;47850;50.274;18.908;2022-09-17T16:24:47;16.90;;;10.40;;
61897;SDS011;47850;50.274;18.908;2022-09-17T16:27:37;19.80;;;11.30;;
61897;SDS011;47850;50.274;18.908;2022-09-17T16:30:21;17.20;;;9.90;;
61897;SDS011;47850;50.274;18.908;2022-09-17T16:32:48;16.00;;;9.90;;
61897;SDS011;47850;50.274;18.908;2022-09-17T16:35:15;16.50;;;9.60;;
61897;SDS011;47850;50.274;18.908;2022-09-17T16:37:43;15.80;;;8.60;;
61897;SDS011;47850;50.274;18.908;2022-09-17T16:40:13;15.50;;;9.30;;
61897;SDS011;47850;50.274;18.908;2022-09-17T16:42:39;14.00;;;8.30;;
61897;SDS011;47850;50.274;18.908;2022-09-17T16:45:05;14.00;;;8.70;;
61897;SDS011;47850;50.274;18.908;2022-09-17T16:47:32;28.10;;;15.00;;
61897;SDS011;47850;50.274;18.908;2022-09-17T16:50:05;20.00;;;12.40;;
61897;SDS011;47850;50.274;18.908;2022-09-17T16:52:35;23.20;;;13.90;;
61897;SDS011;47850;50.274;18.908;2022-09-17T16:55:02;36.10;;;21.30;;
61897;SDS011;47850;50.274;18.908;2022-09-17T16:57:29;25.50;;;13.30;;
61897;SDS011;47850;50.274;18.908;2022-09-17T16:59:56;14.20;;;8.30;;
61897;SDS011;47850;50.274;18.908;2022-09-17T17:02:23;12.80;;;8.40;;
61897;SDS011;47850;50.274;18.908;2022-09-17T17:04:49;14.30;;;9.00;;
61897;SDS011;47850;50.274;18.908;2022-09-17T17:07:14;15.40;;;9.70;;
61897;SDS011;47850;50.274;18.908;2022-09-17T17:09:40;8.60;;;5.60;;
61897;SDS011;47850;50.274;18.908;2022-09-17T17:12:06;15.50;;;9.90;;
61897;SDS011;47850;50.274;18.908;2022-09-17T17:14:32;16.10;;;8.20;;
61897;SDS011;47850;50.274;18.908;2022-09-17T17:16:58;12.30;;;8.00;;
61897;SDS011;47850;50.274;18.908;2022-09-17T17:19:24;8.30;;;5.30;;
61897;SDS011;47850;50.274;18.908;2022-09-17T17:21:51;8.60;;;5.80;;
61897;SDS011;47850;50.274;18.908;2022-09-17T17:24:18;9.30;;;5.60;;
61897;SDS011;47850;50.274;18.908;2022-09-17T17:26:45;10.60;;;6.50;;
61897;SDS011;47850;50.274;18.908;2022-09-17T17:29:13;28.60;;;17.10;;
61897;SDS011;47850;50.274;18.908;2022-09-17T17:31:39;12.30;;;7.50;;
61897;SDS011;47850;50.274;18.908;2022-09-17T17:34:05;11.10;;;6.70;;
61897;SDS011;47850;50.274;18.908;2022-09-17T17:36:31;11.30;;;7.60;;
61897;SDS011;47850;50.274;18.908;2022-09-17T17:38:59;14.70;;;9.10;;
61897;SDS011;47850;50.274;18.908;2022-09-17T17:41:25;22.10;;;13.70;;
61897;SDS011;47850;50.274;18.908;2022-09-17T17:43:53;10.70;;;6.80;;
61897;SDS011;47850;50.274;18.908;2022-09-17T17:46:19;16.30;;;9.30;;
61897;SDS011;47850;50.274;18.908;2022-09-17T17:48:45;12.80;;;6.70;;
61897;SDS011;47850;50.274;18.908;2022-09-17T17:51:11;16.00;;;9.30;;
61897;SDS011;47850;50.274;18.908;2022-09-17T17:53:40;17.50;;;7.40;;
61897;SDS011;47850;50.274;18.908;2022-09-17T17:56:07;17.30;;;10.70;;
61897;SDS011;47850;50.274;18.908;2022-09-17T17:58:34;16.90;;;9.40;;
61897;SDS011;47850;50.274;18.908;2022-09-17T18:01:10;12.70;;;6.50;;